Terminal Aerodrome Forecast
Issued by NWS

Home | Current Version | Previous Version | Text Only | Print | Product List | Glossary On
Versions: 1 2 3 4 5 6 7 8 9 10 11 12
000
FTUS42 TJSJ 211100
TAFKPK
TAF
TKPK 211137Z 2112/2212 06008KT P6SM VCSH FEW018 SCT022
     FM211500 08011KT P6SM SCT020
     FM212300 04005KT P6SM FEW022
      AMD NOT SKED 2202/2211=

USA.gov is the U.S. government's official web portal to all federal, state and local government web resources and services.